Grand Marais, MI (49839)

7:45 PM EDT on August 04, 2015 (GMT -0400)
Luce County | | Change Station
CLOSE
Current Station
Airport
Location: Newberry,
Elevation: 869 ft
Nearby Weather Stations

Elev 869 ft 46.31 °N, 85.46 °W | Updated 11 minutes ago

Overcast
Overcast
60 °F
Feels Like 60 °F
N
5
Wind Variable Wind from NW

Today
High -- | Low -- °F
--% Chance of Precip.
Yesterday
High -- | Low -- °F
Precip. -- in
6:28 AM 9:11 PM
Waning Gibbous, 73% visible
Pressure 29.96 in
Visibility 10.0 miles
Clouds Overcast 3200 ft
Dew Point 49 °F
Humidity 66%
Rainfall 0.08 in
Snow Depth Not available.
UV 0 out of 12
Pollen 6.30 out of 12
Air Quality Not available.
Flu Activity Not available.
METAR KERY 042334Z AUTO 31004KT 10SM OVC032 16/09 A2996 RMK AO2 T01570093

More Conditions Fewer Conditions

Pressure 29.96 in
Visibility 10.0 miles
Clouds Overcast 3200 ft
Dew Point 49 °F
Humidity 66%
Rainfall 0.08 in
Snow Depth Not available.
UV 0 out of 12
Pollen 6.30 out of 12
Air Quality Not available.
Flu Activity Not available.
METAR KERY 042334Z AUTO 31004KT 10SM OVC032 16/09 A2996 RMK AO2 T01570093

More Conditions Fewer Conditions

10-Day Weather Forecast

×

Almanac

Astronomy

Aug. 04, 2015 Rise Set
Actual Time
Civil Twilight
Nautical Twilight
Astronomical Twilight
Moon
Length of Visible Light
Length of Day
Tomorrow will be .
, % of the Moon is Illuminated

Today's Extremes

State Highs State Lows

Community

WunderPhotos

Upload Photos

1,844,023 photos uploaded!

WunderBlogs® & News

Nearby

Air Quality

  Air Quality AQ Index Pollutant
Not available.

Snow Depth

Station Depth Elevation

Earthquake Activity

City Distance Mag. Time & Date
Minimum magnitude displayed is 2.5.

Coastal Water Temperatures

Place Temperature

Stations

Nearby Weather Stations

Station Location Temp. Windchill Dew Point Humidity Wind Precip. Elev Updated Type